Time;durP1;ratioP1;P1;durP2;ratioP2;P2;SDS_P1;SDS_P2;PMS_P1;PMS_P2;Temp;Humidity;BMP_temperature;BMP_pressure;BME280_temperature;BME280_humidity;BME280_pressure;Samples;Min_cycle;Max_cycle;Signal;HPM_P1;HPM_P2
2022/03/16 00:01:18;;;;;;;23.20;14.20;;;4.80;99.90;;;;;;5106896;27;20208;-45
2022/03/16 00:03:45;;;;;;;23.17;14.93;;;4.90;99.90;;;;;;5097112;28;20270;-45
2022/03/16 00:06:13;;;;;;;19.17;12.80;;;4.90;99.90;;;;;;5105623;28;20631;-42
2022/03/16 00:08:41;;;;;;;22.43;13.90;;;4.80;99.90;;;;;;5103524;28;20201;-45
2022/03/16 00:11:07;;;;;;;24.63;13.73;;;4.80;99.90;;;;;;5090983;28;20313;-44
2022/03/16 00:13:34;;;;;;;22.17;12.97;;;4.80;99.90;;;;;;5093186;28;20260;-44
2022/03/16 00:16:01;;;;;;;22.87;13.13;;;4.70;99.90;;;;;;5100872;28;20196;-44
2022/03/16 00:18:27;;;;;;;20.57;13.47;;;4.70;99.90;;;;;;5098716;28;20217;-47
2022/03/16 00:20:55;;;;;;;19.77;12.17;;;4.70;99.90;;;;;;5103810;28;20227;-44
2022/03/16 00:23:22;;;;;;;18.03;12.27;;;4.60;99.90;;;;;;5104225;28;20228;-42
2022/03/16 00:25:50;;;;;;;20.67;11.97;;;4.60;99.90;;;;;;5103429;28;20189;-45
2022/03/16 00:28:17;;;;;;;20.27;12.37;;;4.50;99.90;;;;;;5090519;28;20204;-44
2022/03/16 00:30:45;;;;;;;23.13;12.60;;;4.40;99.90;;;;;;5103603;28;20276;-41
2022/03/16 00:33:12;;;;;;;26.70;14.17;;;4.40;99.90;;;;;;5105406;28;20224;-43
2022/03/16 00:35:40;;;;;;;23.70;14.33;;;4.50;99.90;;;;;;5092788;28;20213;-42
2022/03/16 00:38:07;;;;;;;22.27;13.73;;;4.40;99.90;;;;;;5103032;28;20217;-44
2022/03/16 00:40:34;;;;;;;21.00;14.27;;;4.40;99.90;;;;;;5101522;28;20197;-42
2022/03/16 00:43:04;;;;;;;26.07;13.97;;;4.40;99.90;;;;;;5088220;28;20612;-42
2022/03/16 00:45:31;;;;;;;20.80;13.50;;;4.40;99.90;;;;;;5100539;28;20201;-42
2022/03/16 00:47:58;;;;;;;24.10;13.53;;;4.30;99.90;;;;;;5105007;28;20197;-42
2022/03/16 00:50:24;;;;;;;22.50;13.80;;;4.20;99.90;;;;;;5095868;28;20227;-43
2022/03/16 00:52:52;;;;;;;23.37;14.03;;;4.10;99.90;;;;;;5104131;28;20244;-44
2022/03/16 00:55:19;;;;;;;25.27;13.83;;;4.10;99.90;;;;;;5102866;28;20194;-41
2022/03/16 00:57:46;;;;;;;23.73;14.00;;;4.10;99.90;;;;;;5086457;28;20232;-42
2022/03/16 01:00:15;;;;;;;24.30;14.23;;;4.10;99.90;;;;;;5104922;28;20293;-42
2022/03/16 01:02:42;;;;;;;21.13;13.37;;;4.00;99.90;;;;;;5100403;28;20225;-42
2022/03/16 01:05:09;;;;;;;21.30;12.73;;;4.00;99.90;;;;;;5099559;28;20201;-42
2022/03/16 01:07:36;;;;;;;19.93;13.37;;;4.00;99.90;;;;;;5099001;28;20181;-42
2022/03/16 01:10:04;;;;;;;24.67;13.07;;;3.90;99.90;;;;;;5105251;28;20197;-42
2022/03/16 01:12:31;;;;;;;26.83;13.30;;;3.90;99.90;;;;;;5101468;27;20198;-43
2022/03/16 01:14:58;;;;;;;26.97;13.07;;;3.90;99.90;;;;;;5088938;28;20299;-42
2022/03/16 01:17:27;;;;;;;23.93;12.93;;;4.00;99.90;;;;;;5101525;28;20221;-42
2022/03/16 01:19:55;;;;;;;33.03;14.30;;;4.00;99.90;;;;;;5098648;28;20205;-46
2022/03/16 01:22:22;;;;;;;45.77;15.37;;;4.00;99.90;;;;;;5102971;28;20197;-47
2022/03/16 01:24:49;;;;;;;30.73;13.93;;;4.00;99.90;;;;;;5103095;28;20854;-41
2022/03/16 01:27:16;;;;;;;29.33;14.30;;;3.90;99.90;;;;;;5103849;28;20201;-42
2022/03/16 01:29:43;;;;;;;22.17;12.50;;;3.90;99.90;;;;;;5086699;28;20280;-45
2022/03/16 01:32:10;;;;;;;23.93;12.90;;;3.90;99.90;;;;;;5103260;28;20216;-44
2022/03/16 01:34:38;;;;;;;21.00;12.30;;;3.90;99.90;;;;;;5100236;28;20217;-45
2022/03/16 01:37:06;;;;;;;20.60;12.27;;;3.90;99.90;;;;;;5098233;28;20695;-42
2022/03/16 01:39:33;;;;;;;20.47;12.60;;;3.90;99.90;;;;;;5100110;28;20197;-44
2022/03/16 01:41:59;;;;;;;22.07;12.27;;;3.90;99.90;;;;;;5102755;28;20310;-42
2022/03/16 01:44:42;;;;;;;18.70;12.30;;;4.00;99.90;;;;;;5101031;28;20228;-42
2022/03/16 01:47:10;;;;;;;18.47;11.87;;;4.00;99.90;;;;;;5082909;28;20670;-42
2022/03/16 01:49:39;;;;;;;23.03;12.33;;;4.00;99.90;;;;;;5092668;28;20196;-42
2022/03/16 01:52:07;;;;;;;21.77;11.77;;;4.00;99.90;;;;;;5098814;28;20514;-44
2022/03/16 01:54:35;;;;;;;19.07;11.97;;;4.00;99.90;;;;;;5099560;27;20270;-42
2022/03/16 01:57:02;;;;;;;21.73;12.07;;;3.90;99.90;;;;;;5082846;28;20613;-42
2022/03/16 01:59:30;;;;;;;19.20;11.57;;;4.00;99.90;;;;;;5099821;28;20260;-43
2022/03/16 02:01:57;;;;;;;19.90;12.07;;;4.00;99.90;;;;;;5078449;28;20194;-42
2022/03/16 02:04:25;;;;;;;21.63;12.67;;;4.00;99.90;;;;;;5099769;28;20220;-45
2022/03/16 02:06:53;;;;;;;21.73;12.43;;;4.00;99.90;;;;;;5096230;28;20190;-44
2022/03/16 02:09:21;;;;;;;20.40;11.10;;;4.00;99.90;;;;;;5096380;28;20185;-45
2022/03/16 02:11:48;;;;;;;21.33;11.67;;;4.10;99.90;;;;;;5102279;28;20218;-44
2022/03/16 02:14:15;;;;;;;21.20;11.50;;;4.10;99.90;;;;;;5103773;28;20231;-42
2022/03/16 02:16:42;;;;;;;23.67;12.00;;;4.10;99.90;;;;;;5085654;28;23960;-44
2022/03/16 02:19:09;;;;;;;20.03;11.10;;;4.10;99.90;;;;;;5103194;28;20242;-43
2022/03/16 02:21:38;;;;;;;18.63;11.13;;;4.20;99.90;;;;;;5099901;28;20189;-45
2022/03/16 02:24:07;;;;;;;18.80;11.23;;;4.20;99.90;;;;;;5097611;28;20256;-43
2022/03/16 02:26:35;;;;;;;18.67;11.63;;;4.20;99.90;;;;;;5095636;28;20189;-45
2022/03/16 02:29:02;;;;;;;16.17;10.53;;;4.20;99.90;;;;;;5100173;28;20194;-43
2022/03/16 02:31:28;;;;;;;18.80;11.77;;;4.20;99.90;;;;;;5088426;28;20196;-44
2022/03/16 02:33:55;;;;;;;20.23;11.17;;;4.20;99.90;;;;;;5100277;28;20711;-45
2022/03/16 02:36:22;;;;;;;19.97;11.10;;;4.20;99.90;;;;;;5100911;28;20208;-42
2022/03/16 02:38:49;;;;;;;16.97;10.90;;;4.20;99.90;;;;;;5095016;28;20217;-46
2022/03/16 02:41:17;;;;;;;19.73;11.43;;;4.30;99.90;;;;;;5103472;28;20266;-43
2022/03/16 02:43:44;;;;;;;21.90;11.77;;;4.20;99.90;;;;;;5100232;28;20221;-44
2022/03/16 02:46:11;;;;;;;21.10;12.33;;;4.20;99.90;;;;;;5103213;28;20658;-44
2022/03/16 02:48:38;;;;;;;20.77;10.63;;;4.20;99.90;;;;;;5084823;28;20197;-43
2022/03/16 02:51:05;;;;;;;18.73;11.23;;;4.20;99.90;;;;;;5103336;28;20201;-43
2022/03/16 02:53:32;;;;;;;19.03;11.87;;;4.20;99.90;;;;;;5099143;28;20218;-45
2022/03/16 02:55:59;;;;;;;19.23;11.93;;;4.20;99.90;;;;;;5097232;28;20284;-43
2022/03/16 02:58:27;;;;;;;21.70;13.07;;;4.20;99.90;;;;;;5100777;28;20209;-42
2022/03/16 03:00:54;;;;;;;17.67;11.30;;;4.20;99.90;;;;;;5102422;28;20649;-43
2022/03/16 03:03:21;;;;;;;19.97;11.70;;;4.10;99.90;;;;;;5086701;28;20575;-42
2022/03/16 03:05:47;;;;;;;22.03;12.43;;;4.10;99.90;;;;;;5100461;28;20242;-42
2022/03/16 03:08:14;;;;;;;15.17;10.57;;;4.00;99.90;;;;;;5102580;28;20250;-42
2022/03/16 03:10:42;;;;;;;22.63;12.73;;;4.00;99.90;;;;;;5094299;28;20208;-45
2022/03/16 03:13:09;;;;;;;27.83;14.03;;;4.00;99.90;;;;;;5102827;28;20225;-44
2022/03/16 03:15:37;;;;;;;26.33;13.70;;;4.00;99.90;;;;;;5099143;28;20220;-47
2022/03/16 03:18:04;;;;;;;23.73;12.70;;;4.00;99.90;;;;;;5095572;28;20233;-44
2022/03/16 03:20:31;;;;;;;24.67;14.37;;;4.00;99.90;;;;;;5082305;28;20864;-41
2022/03/16 03:22:58;;;;;;;24.53;14.50;;;4.00;99.90;;;;;;5102678;28;20244;-45
2022/03/16 03:25:24;;;;;;;25.53;14.37;;;4.00;99.90;;;;;;5100979;28;20208;-46
2022/03/16 03:27:51;;;;;;;24.73;15.43;;;4.00;99.90;;;;;;5089066;28;20715;-43
2022/03/16 03:30:18;;;;;;;31.10;14.60;;;4.00;99.90;;;;;;5095262;28;20196;-43
2022/03/16 03:32:47;;;;;;;27.87;14.23;;;4.00;99.90;;;;;;5093574;28;21022;-42
2022/03/16 03:35:14;;;;;;;24.63;14.13;;;4.00;99.90;;;;;;5082025;28;20204;-44
2022/03/16 03:37:41;;;;;;;22.40;13.87;;;4.00;99.90;;;;;;5092392;28;20197;-45
2022/03/16 03:40:08;;;;;;;26.70;14.87;;;4.00;99.90;;;;;;5103001;28;20284;-42
2022/03/16 03:42:35;;;;;;;29.07;14.97;;;3.90;99.90;;;;;;5086359;28;20278;-43
2022/03/16 03:45:03;;;;;;;30.23;15.33;;;3.90;99.90;;;;;;5099308;28;20496;-47
2022/03/16 03:47:30;;;;;;;28.60;15.50;;;3.90;99.90;;;;;;5092657;28;20262;-42
2022/03/16 03:49:58;;;;;;;30.23;14.30;;;3.90;99.90;;;;;;5083636;28;20201;-45
2022/03/16 03:52:25;;;;;;;29.70;15.23;;;3.80;99.90;;;;;;5093754;28;20647;-43
2022/03/16 03:54:52;;;;;;;26.77;15.43;;;3.80;99.90;;;;;;5095832;28;20197;-46
2022/03/16 03:57:19;;;;;;;22.00;14.17;;;3.70;99.90;;;;;;5094756;28;20209;-42
2022/03/16 03:59:46;;;;;;;27.03;15.03;;;3.70;99.90;;;;;;5087583;28;20217;-43
2022/03/16 04:02:13;;;;;;;27.70;14.67;;;3.70;99.90;;;;;;5103208;28;20208;-44
2022/03/16 04:04:41;;;;;;;30.40;15.07;;;3.70;99.90;;;;;;5098614;28;20888;-44
2022/03/16 04:07:09;;;;;;;28.07;14.97;;;3.70;99.90;;;;;;5087327;28;20605;-43
2022/03/16 04:09:36;;;;;;;24.07;13.57;;;3.70;99.90;;;;;;5095296;28;20177;-43
2022/03/16 04:12:03;;;;;;;23.53;13.47;;;3.60;99.90;;;;;;5099583;28;20646;-42
2022/03/16 04:14:31;;;;;;;24.93;15.47;;;3.50;99.90;;;;;;5090408;28;20732;-43
2022/03/16 04:16:57;;;;;;;25.47;14.77;;;3.50;99.90;;;;;;5105296;28;20201;-43
2022/03/16 04:19:24;;;;;;;20.50;13.60;;;3.40;99.90;;;;;;5103643;28;20228;-42
2022/03/16 04:21:51;;;;;;;26.33;14.40;;;3.30;99.90;;;;;;5087886;28;20294;-42
2022/03/16 04:24:19;;;;;;;28.43;13.77;;;3.30;99.90;;;;;;5104531;28;20220;-44
2022/03/16 04:26:47;;;;;;;25.03;14.10;;;3.20;99.90;;;;;;5100740;28;20197;-44
2022/03/16 04:29:14;;;;;;;29.63;14.97;;;3.20;99.90;;;;;;5100671;28;20193;-43
2022/03/16 04:31:41;;;;;;;27.37;14.03;;;3.20;99.90;;;;;;5102390;28;20189;-44
2022/03/16 04:34:08;;;;;;;27.17;14.50;;;3.20;99.90;;;;;;5105548;28;20228;-41
2022/03/16 04:36:35;;;;;;;23.23;14.23;;;3.20;99.90;;;;;;5100948;28;20192;-44
2022/03/16 04:39:02;;;;;;;23.23;14.00;;;3.10;99.90;;;;;;5091092;28;20221;-43
2022/03/16 04:41:30;;;;;;;24.93;14.57;;;3.10;99.90;;;;;;5102400;28;20205;-43
2022/03/16 04:43:57;;;;;;;25.20;14.20;;;3.10;99.90;;;;;;5089457;28;20240;-43
2022/03/16 04:46:24;;;;;;;24.90;14.30;;;3.10;99.90;;;;;;5104227;28;20201;-41
2022/03/16 04:48:51;;;;;;;24.00;14.33;;;3.10;99.90;;;;;;5103572;28;20193;-43
2022/03/16 04:51:18;;;;;;;26.00;14.17;;;3.10;99.90;;;;;;5104181;28;20946;-41
2022/03/16 04:53:45;;;;;;;20.83;12.87;;;3.00;99.90;;;;;;5089504;28;20221;-43
2022/03/16 04:56:12;;;;;;;21.63;14.73;;;3.00;99.90;;;;;;5101915;28;20189;-43
2022/03/16 04:58:41;;;;;;;25.83;14.23;;;3.00;99.90;;;;;;5105581;28;20544;-41
2022/03/16 05:01:08;;;;;;;26.13;13.10;;;3.00;99.90;;;;;;5087547;28;20208;-42
2022/03/16 05:03:35;;;;;;;23.53;14.23;;;3.00;99.90;;;;;;5099865;28;20225;-45
2022/03/16 05:06:02;;;;;;;25.07;13.27;;;2.90;99.90;;;;;;5099843;28;20248;-44
2022/03/16 05:08:28;;;;;;;23.60;13.57;;;2.90;99.90;;;;;;5090363;28;20208;-43
2022/03/16 05:10:55;;;;;;;22.00;13.80;;;2.90;99.90;;;;;;5102290;28;20204;-41
2022/03/16 05:13:23;;;;;;;21.87;13.37;;;2.90;99.90;;;;;;5104431;28;20228;-43
2022/03/16 05:15:51;;;;;;;24.80;13.07;;;2.90;99.90;;;;;;5097251;28;20201;-43
2022/03/16 05:18:18;;;;;;;21.57;12.90;;;2.90;99.90;;;;;;5102924;28;20818;-45
2022/03/16 05:20:45;;;;;;;23.43;13.43;;;2.90;99.90;;;;;;5103318;28;20197;-42
2022/03/16 05:23:12;;;;;;;23.00;12.80;;;2.90;99.90;;;;;;5086917;28;20234;-42
2022/03/16 05:25:39;;;;;;;21.50;13.27;;;2.80;99.90;;;;;;5104814;28;20200;-41
2022/03/16 05:28:06;;;;;;;21.00;12.73;;;2.80;99.90;;;;;;5100376;28;20189;-44
2022/03/16 05:30:33;;;;;;;23.67;11.93;;;2.80;99.90;;;;;;5097309;28;20283;-42
2022/03/16 05:33:01;;;;;;;18.53;12.63;;;2.80;99.90;;;;;;5100162;28;20236;-42
2022/03/16 05:35:29;;;;;;;19.07;12.20;;;2.80;99.90;;;;;;5103290;28;20658;-44
2022/03/16 05:37:57;;;;;;;21.37;12.50;;;2.80;99.90;;;;;;5088959;28;20194;-42
2022/03/16 05:40:24;;;;;;;18.13;11.80;;;2.80;99.90;;;;;;5102313;28;20312;-42
2022/03/16 05:42:51;;;;;;;25.97;13.40;;;2.70;99.90;;;;;;5102112;28;20220;-43
2022/03/16 05:45:18;;;;;;;19.47;12.00;;;2.70;99.90;;;;;;5098789;28;20265;-42
2022/03/16 05:47:45;;;;;;;19.83;12.40;;;2.70;99.90;;;;;;5096883;28;20210;-43
2022/03/16 05:50:13;;;;;;;21.87;11.97;;;2.70;99.90;;;;;;5101477;28;20888;-42
2022/03/16 05:52:43;;;;;;;20.70;11.50;;;2.70;99.90;;;;;;5104006;28;20208;-44
2022/03/16 05:55:13;;;;;;;21.40;12.57;;;2.60;99.90;;;;;;5085640;28;20196;-45
2022/03/16 05:57:40;;;;;;;18.20;11.60;;;2.60;99.90;;;;;;5097293;28;20211;-42
2022/03/16 06:00:07;;;;;;;17.40;11.77;;;2.60;99.90;;;;;;5100247;28;20213;-43
2022/03/16 06:02:34;;;;;;;22.17;12.57;;;2.70;99.90;;;;;;5098659;28;20293;-45
2022/03/16 06:05:01;;;;;;;16.67;12.17;;;2.70;99.90;;;;;;5099658;28;20199;-42
2022/03/16 06:07:29;;;;;;;22.67;12.47;;;2.70;99.90;;;;;;5102422;27;20551;-42
2022/03/16 06:09:56;;;;;;;20.60;11.43;;;2.70;99.90;;;;;;5088046;27;20205;-45
2022/03/16 06:12:23;;;;;;;19.37;11.30;;;2.70;99.90;;;;;;5103793;27;20210;-43
2022/03/16 06:14:50;;;;;;;18.77;11.20;;;2.70;99.90;;;;;;5100188;28;20204;-42
2022/03/16 06:17:17;;;;;;;18.47;11.27;;;2.70;99.90;;;;;;5101424;27;21038;-42
2022/03/16 06:19:44;;;;;;;21.47;12.03;;;2.70;99.90;;;;;;5099053;28;20217;-44
2022/03/16 06:22:11;;;;;;;19.00;11.70;;;2.60;99.90;;;;;;5100458;27;20498;-47
2022/03/16 06:24:40;;;;;;;20.03;12.87;;;2.60;99.90;;;;;;5100728;27;20224;-42
2022/03/16 06:27:06;;;;;;;19.83;12.20;;;2.60;99.90;;;;;;5085889;27;20236;-45
2022/03/16 06:29:33;;;;;;;19.93;12.57;;;2.70;99.90;;;;;;5092792;27;20219;-42
2022/03/16 06:32:00;;;;;;;17.57;10.97;;;2.70;99.90;;;;;;5099023;28;20208;-41
2022/03/16 06:34:27;;;;;;;20.03;11.70;;;2.80;99.90;;;;;;5098759;27;20233;-45
2022/03/16 06:36:53;;;;;;;16.40;11.97;;;2.80;99.90;;;;;;5102635;27;20664;-44
2022/03/16 06:39:20;;;;;;;19.57;12.07;;;2.90;99.90;;;;;;5109158;27;20209;-42
2022/03/16 06:41:49;;;;;;;22.60;13.17;;;2.90;99.90;;;;;;5086633;28;20524;-44
2022/03/16 06:44:16;;;;;;;23.87;13.03;;;3.00;99.90;;;;;;5091804;27;20213;-45
2022/03/16 06:46:43;;;;;;;21.30;11.93;;;3.10;99.90;;;;;;5098245;27;20191;-42
2022/03/16 06:49:09;;;;;;;20.10;12.97;;;3.10;99.90;;;;;;5096951;28;20205;-42
2022/03/16 06:51:36;;;;;;;20.30;13.17;;;3.20;99.90;;;;;;5100720;27;20203;-42
2022/03/16 06:54:02;;;;;;;20.77;13.30;;;3.30;99.90;;;;;;5105901;27;20204;-41
2022/03/16 06:56:29;;;;;;;21.93;13.90;;;3.40;99.90;;;;;;5101081;28;20200;-43
2022/03/16 06:58:57;;;;;;;23.20;13.87;;;3.50;99.90;;;;;;5082341;28;20267;-42
2022/03/16 07:01:24;;;;;;;20.30;13.80;;;3.60;99.90;;;;;;5103025;28;20246;-45
2022/03/16 07:03:51;;;;;;;23.40;14.53;;;3.70;99.90;;;;;;5091607;28;20209;-45
2022/03/16 07:06:18;;;;;;;24.30;14.07;;;3.80;99.90;;;;;;5102128;27;20200;-45
2022/03/16 07:08:46;;;;;;;23.63;13.67;;;3.80;99.90;;;;;;5096804;27;20304;-42
2022/03/16 07:11:13;;;;;;;24.53;15.17;;;3.90;99.90;;;;;;5104964;28;20186;-42
2022/03/16 07:13:41;;;;;;;25.73;14.40;;;3.90;99.90;;;;;;5084264;28;20686;-42
2022/03/16 07:16:10;;;;;;;21.43;14.03;;;3.90;99.90;;;;;;5107194;28;20209;-44
2022/03/16 07:18:36;;;;;;;28.30;14.73;;;4.00;99.90;;;;;;5096232;28;20218;-44
2022/03/16 07:21:04;;;;;;;22.83;14.27;;;4.10;99.90;;;;;;5103026;28;20216;-43
2022/03/16 07:23:30;;;;;;;21.67;13.70;;;4.10;99.90;;;;;;5103333;27;20216;-45
2022/03/16 07:25:57;;;;;;;23.97;13.93;;;4.20;99.90;;;;;;5098116;28;20595;-43
2022/03/16 07:28:25;;;;;;;20.07;13.70;;;4.20;99.90;;;;;;5086407;28;20197;-48
2022/03/16 07:30:52;;;;;;;25.00;14.17;;;4.20;99.90;;;;;;5092640;28;20883;-42
2022/03/16 07:33:21;;;;;;;20.63;13.77;;;4.30;99.90;;;;;;5101261;28;20223;-44
2022/03/16 07:35:48;;;;;;;24.50;14.97;;;4.40;99.90;;;;;;5087631;28;20225;-42
2022/03/16 07:38:17;;;;;;;24.50;14.50;;;4.40;99.90;;;;;;5104196;28;20255;-44
2022/03/16 07:40:44;;;;;;;23.50;14.13;;;4.50;99.90;;;;;;5099051;27;20223;-42
2022/03/16 07:43:11;;;;;;;24.90;13.70;;;4.50;99.90;;;;;;5086307;28;20852;-43
2022/03/16 07:45:39;;;;;;;22.30;13.53;;;4.60;99.90;;;;;;5095767;28;20299;-43
2022/03/16 07:48:06;;;;;;;25.83;14.37;;;4.60;99.90;;;;;;5103741;28;20193;-43
2022/03/16 07:50:34;;;;;;;21.27;13.17;;;4.70;99.90;;;;;;5104787;28;20195;-43
2022/03/16 07:53:01;;;;;;;24.73;13.83;;;4.70;99.90;;;;;;5104104;28;20279;-42
2022/03/16 07:55:28;;;;;;;23.83;13.90;;;4.80;99.90;;;;;;5106684;28;20224;-44
2022/03/16 07:57:55;;;;;;;25.50;14.07;;;4.90;99.90;;;;;;5087674;27;20209;-44
2022/03/16 08:00:23;;;;;;;22.37;13.73;;;4.90;99.90;;;;;;5079130;27;20262;-45
2022/03/16 08:02:53;;;;;;;23.13;14.50;;;5.00;99.90;;;;;;5095852;27;20724;-45
2022/03/16 08:05:21;;;;;;;18.77;13.37;;;5.00;99.90;;;;;;5091607;27;21300;-43
2022/03/16 08:07:50;;;;;;;19.43;12.30;;;5.00;99.90;;;;;;5102199;27;20285;-44
2022/03/16 08:10:16;;;;;;;20.57;13.77;;;5.00;99.90;;;;;;5101779;27;20939;-42
2022/03/16 08:12:43;;;;;;;24.70;14.13;;;5.10;99.90;;;;;;5092729;28;20576;-41
2022/03/16 08:15:11;;;;;;;18.83;12.97;;;5.20;99.90;;;;;;5090031;27;20790;-44
2022/03/16 08:17:37;;;;;;;22.60;13.90;;;5.20;99.90;;;;;;5097223;27;20599;-41
2022/03/16 08:20:05;;;;;;;25.27;13.87;;;5.30;99.90;;;;;;5105787;27;20244;-41
2022/03/16 08:22:33;;;;;;;21.70;13.37;;;5.40;99.90;;;;;;5101558;27;20519;-44
2022/03/16 08:25:05;;;;;;;21.97;13.30;;;5.40;99.90;;;;;;5095817;27;20258;-46
2022/03/16 08:27:34;;;;;;;20.40;12.93;;;5.40;99.90;;;;;;5093581;27;20254;-46
2022/03/16 08:30:01;;;;;;;18.13;12.63;;;5.40;99.90;;;;;;5085214;27;20202;-47
2022/03/16 08:32:28;;;;;;;20.23;12.97;;;5.50;99.90;;;;;;5109097;27;20304;-44
2022/03/16 08:34:54;;;;;;;21.47;12.30;;;5.60;99.90;;;;;;5092264;28;20202;-46
2022/03/16 08:37:21;;;;;;;19.53;11.80;;;5.60;99.90;;;;;;5099446;27;20393;-47
2022/03/16 08:39:49;;;;;;;16.17;12.13;;;5.70;99.90;;;;;;5105259;27;20202;-44
2022/03/16 08:42:18;;;;;;;17.70;11.80;;;5.70;99.90;;;;;;5091715;27;20228;-44
2022/03/16 08:44:46;;;;;;;15.97;11.63;;;5.80;99.90;;;;;;5086468;27;20221;-45
2022/03/16 08:47:16;;;;;;;14.77;11.30;;;5.90;99.90;;;;;;5100403;27;20189;-44
2022/03/16 08:49:46;;;;;;;17.13;11.87;;;6.00;99.90;;;;;;5085401;28;20197;-41
2022/03/16 08:52:13;;;;;;;17.40;11.53;;;6.00;99.90;;;;;;5103749;27;20229;-41
2022/03/16 08:54:40;;;;;;;14.50;11.17;;;6.00;99.90;;;;;;5095004;28;20223;-41
2022/03/16 08:57:08;;;;;;;15.43;11.53;;;6.00;99.90;;;;;;5098610;27;20259;-40
2022/03/16 08:59:36;;;;;;;17.33;11.30;;;6.00;99.90;;;;;;5102775;27;20563;-41
2022/03/16 09:02:04;;;;;;;15.77;11.07;;;6.10;99.90;;;;;;5086906;27;20213;-41
2022/03/16 09:04:31;;;;;;;16.43;10.80;;;6.20;99.90;;;;;;5086259;28;20735;-42
2022/03/16 09:06:59;;;;;;;17.17;11.20;;;6.30;99.90;;;;;;5101055;27;20243;-41
2022/03/16 09:09:26;;;;;;;14.07;11.43;;;6.40;99.90;;;;;;5100375;27;20193;-42
2022/03/16 09:11:53;;;;;;;16.80;10.93;;;6.50;99.90;;;;;;5097970;28;20648;-42
2022/03/16 09:14:20;;;;;;;15.60;10.70;;;6.50;99.90;;;;;;5092496;28;20304;-41
2022/03/16 09:16:48;;;;;;;13.97;10.40;;;6.60;99.90;;;;;;5088173;28;20220;-42
2022/03/16 09:19:15;;;;;;;15.67;11.00;;;6.70;99.90;;;;;;5097132;28;20868;-42
2022/03/16 09:21:43;;;;;;;13.33;10.30;;;6.80;99.90;;;;;;5097475;28;20245;-41
2022/03/16 09:24:11;;;;;;;14.23;10.57;;;6.90;99.90;;;;;;5094029;28;20224;-41
2022/03/16 09:26:39;;;;;;;16.17;9.53;;;7.00;99.90;;;;;;5101675;28;20204;-41
2022/03/16 09:29:08;;;;;;;11.90;9.57;;;6.90;99.90;;;;;;5094654;28;20205;-45
2022/03/16 09:31:35;;;;;;;12.57;9.27;;;7.00;99.90;;;;;;5085863;28;20214;-41
2022/03/16 09:34:06;;;;;;;12.20;8.77;;;7.10;99.90;;;;;;5100016;28;20562;-42
2022/03/16 09:36:33;;;;;;;14.10;9.37;;;7.20;99.90;;;;;;5097006;28;20196;-41
2022/03/16 09:39:00;;;;;;;11.93;9.67;;;7.30;99.90;;;;;;5100250;28;20256;-46
2022/03/16 09:41:27;;;;;;;10.37;8.83;;;7.40;99.90;;;;;;5098357;28;20209;-42
2022/03/16 09:43:54;;;;;;;9.87;8.10;;;7.40;99.90;;;;;;5102844;28;20353;-42
2022/03/16 09:46:26;;;;;;;15.30;9.30;;;7.50;99.90;;;;;;5078807;28;20225;-45
2022/03/16 09:48:54;;;;;;;9.67;8.10;;;7.60;99.90;;;;;;5102551;28;20670;-43
2022/03/16 09:51:23;;;;;;;12.43;8.73;;;7.70;99.90;;;;;;5090754;28;20194;-42
2022/03/16 09:53:50;;;;;;;10.97;8.60;;;7.80;99.90;;;;;;5102628;28;20228;-44
2022/03/16 09:56:19;;;;;;;12.77;8.47;;;7.90;99.90;;;;;;5096506;28;20903;-43
2022/03/16 09:58:45;;;;;;;17.57;8.77;;;8.00;99.90;;;;;;5102990;28;20561;-44
2022/03/16 10:01:13;;;;;;;10.80;8.17;;;8.20;99.90;;;;;;5092366;27;20880;-44
2022/03/16 10:03:40;;;;;;;10.90;7.80;;;8.30;99.90;;;;;;5087745;28;20217;-43
2022/03/16 10:06:08;;;;;;;9.53;7.27;;;8.40;99.90;;;;;;5098600;28;20235;-43
2022/03/16 10:08:38;;;;;;;14.17;8.00;;;8.50;99.90;;;;;;5097454;28;20201;-42
2022/03/16 10:13:57;;;;;;;11.27;8.23;;;8.60;99.90;;;;;;5100693;28;20300;-43
2022/03/16 10:16:24;;;;;;;9.97;7.50;;;8.80;99.90;;;;;;5093706;28;20303;-43
2022/03/16 10:18:56;;;;;;;11.17;6.73;;;8.90;99.90;;;;;;5087714;28;20203;-42
2022/03/16 10:21:24;;;;;;;11.17;7.30;;;9.10;99.90;;;;;;5100164;27;20542;-42
2022/03/16 10:24:03;;;;;;;11.17;6.87;;;9.10;99.90;;;;;;5096479;28;20225;-42
2022/03/16 10:26:30;;;;;;;10.33;6.50;;;9.20;99.90;;;;;;5100752;28;20414;-44
2022/03/16 10:29:01;;;;;;;8.50;6.23;;;9.30;99.90;;;;;;5095843;28;20197;-42
2022/03/16 10:31:28;;;;;;;9.10;6.50;;;9.30;99.90;;;;;;5101125;28;20255;-42
2022/03/16 10:33:55;;;;;;;9.40;6.20;;;9.40;99.90;;;;;;5076906;28;20756;-43
2022/03/16 10:36:23;;;;;;;7.40;6.27;;;9.50;99.90;;;;;;5098835;28;20984;-43
2022/03/16 10:38:54;;;;;;;7.73;5.97;;;9.50;99.90;;;;;;5091945;28;20198;-45
2022/03/16 10:46:53;;;;;;;9.53;5.20;;;9.80;99.90;;;;;;5087290;28;20654;-46
2022/03/16 10:49:22;;;;;;;7.43;5.20;;;9.80;99.90;;;;;;5080798;27;20189;-42
2022/03/16 10:52:05;;;;;;;7.17;4.97;;;9.80;99.90;;;;;;5106471;27;20185;-46
2022/03/16 10:54:35;;;;;;;5.20;4.63;;;9.80;99.90;;;;;;5090665;27;20232;-43
2022/03/16 10:57:03;;;;;;;6.20;5.27;;;9.80;99.90;;;;;;5100446;28;20238;-43
2022/03/16 10:59:32;;;;;;;7.00;4.90;;;9.80;99.90;;;;;;5094692;28;20197;-43
2022/03/16 11:02:04;;;;;;;7.23;4.80;;;9.90;99.90;;;;;;5093946;28;20246;-43
2022/03/16 11:04:32;;;;;;;4.63;4.23;;;10.00;99.90;;;;;;5077522;28;20298;-43
2022/03/16 11:06:59;;;;;;;5.87;4.10;;;10.00;99.90;;;;;;5093451;28;20205;-44
2022/03/16 11:09:27;;;;;;;5.47;4.53;;;10.00;99.90;;;;;;5096772;27;20220;-43
2022/03/16 11:14:42;;;;;;;5.80;4.40;;;10.10;99.90;;;;;;5094088;28;20205;-45
2022/03/16 11:17:10;;;;;;;5.67;4.17;;;10.10;99.90;;;;;;5091025;28;20203;-45
2022/03/16 11:19:38;;;;;;;6.93;4.27;;;10.20;99.90;;;;;;5091266;28;20212;-43
2022/03/16 11:22:09;;;;;;;7.67;5.40;;;10.30;99.90;;;;;;5082369;28;20704;-40
2022/03/16 11:24:41;;;;;;;8.43;4.53;;;10.30;99.90;;;;;;5092210;27;20311;-43
2022/03/16 11:27:32;;;;;;;4.63;3.93;;;10.40;99.90;;;;;;5098606;27;20292;-44
2022/03/16 11:30:17;;;;;;;6.60;4.67;;;10.50;99.90;;;;;;5103501;27;20197;-43
2022/03/16 11:32:45;;;;;;;5.33;4.40;;;10.60;99.90;;;;;;5103372;27;20189;-44
2022/03/16 11:35:15;;;;;;;4.63;4.23;;;10.60;99.90;;;;;;5084213;27;20354;-46
2022/03/16 11:37:44;;;;;;;7.60;4.90;;;10.60;99.90;;;;;;5083829;28;20206;-41
2022/03/16 11:40:14;;;;;;;7.30;4.67;;;10.60;99.90;;;;;;5099191;27;20595;-45
2022/03/16 11:43:04;;;;;;;5.07;4.20;;;10.70;99.90;;;;;;5111778;27;20193;-47
2022/03/16 11:45:34;;;;;;;5.80;4.87;;;10.80;99.90;;;;;;5101583;27;20329;-44
2022/03/16 11:48:21;;;;;;;6.97;5.20;;;10.80;99.90;;;;;;5104647;28;20201;-44
2022/03/16 11:51:16;;;;;;;6.53;5.07;;;10.80;99.90;;;;;;5098366;28;20205;-42
2022/03/16 11:54:07;;;;;;;5.00;4.50;;;10.80;99.90;;;;;;5091435;28;20221;-47
2022/03/16 11:56:49;;;;;;;6.57;5.73;;;10.80;99.90;;;;;;5094117;28;20193;-45
2022/03/16 11:59:36;;;;;;;6.30;5.20;;;10.80;99.90;;;;;;5103260;28;20283;-42
2022/03/16 12:02:09;;;;;;;5.80;5.20;;;10.80;99.90;;;;;;5094365;28;20239;-43
2022/03/16 12:04:38;;;;;;;10.03;5.70;;;10.80;99.90;;;;;;5101411;28;20221;-42
2022/03/16 12:07:09;;;;;;;8.00;5.17;;;10.90;99.90;;;;;;5083462;27;20217;-43
2022/03/16 12:09:39;;;;;;;8.13;5.70;;;10.90;99.90;;;;;;5096935;28;20197;-45
2022/03/16 12:15:01;;;;;;;7.17;5.17;;;10.90;99.90;;;;;;5103876;27;20832;-45
2022/03/16 12:17:29;;;;;;;7.03;5.60;;;10.90;99.90;;;;;;5099206;27;20229;-44
2022/03/16 12:20:10;;;;;;;6.43;5.67;;;10.90;99.90;;;;;;5104343;27;20226;-45
2022/03/16 12:22:44;;;;;;;6.47;5.40;;;11.00;99.90;;;;;;5086545;27;20229;-43
2022/03/16 12:25:39;;;;;;;6.93;5.30;;;11.00;99.90;;;;;;5091087;27;20196;-43
2022/03/16 12:30:55;;;;;;;6.33;5.70;;;11.10;99.90;;;;;;5065707;27;20190;-48
2022/03/16 12:33:24;;;;;;;9.20;5.60;;;11.20;99.90;;;;;;5094664;27;20860;-45
2022/03/16 12:35:52;;;;;;;7.13;5.37;;;11.30;99.90;;;;;;5095357;27;20197;-47
2022/03/16 12:38:20;;;;;;;5.20;4.67;;;11.30;99.90;;;;;;5100847;28;20212;-45
2022/03/16 12:43:33;;;;;;;6.13;5.27;;;11.30;99.90;;;;;;5098370;27;20639;-46
2022/03/16 12:46:11;;;;;;;7.40;5.50;;;11.40;99.90;;;;;;5099559;27;21056;-45
2022/03/16 12:48:40;;;;;;;8.17;4.67;;;11.50;99.90;;;;;;5096948;27;20197;-46
2022/03/16 12:51:08;;;;;;;6.70;5.00;;;11.50;99.90;;;;;;5094156;27;20308;-45
2022/03/16 12:53:39;;;;;;;6.40;5.17;;;11.50;99.90;;;;;;5104666;28;20308;-43
2022/03/16 12:56:10;;;;;;;6.00;5.23;;;11.60;99.90;;;;;;5083987;27;20331;-43
2022/03/16 12:58:37;;;;;;;7.27;5.00;;;11.60;99.90;;;;;;5097589;27;20202;-46
2022/03/16 13:01:05;;;;;;;4.83;4.37;;;11.70;99.90;;;;;;5086509;28;20247;-43
2022/03/16 13:03:32;;;;;;;5.37;4.70;;;11.70;99.90;;;;;;5096854;28;20229;-43
2022/03/16 13:05:59;;;;;;;5.13;4.33;;;11.70;99.90;;;;;;5093670;28;20193;-44